Danville, IL (61832)

10:51 PM CDT on July 02, 2015 (GMT -0500)
APRSWXNET | | Change Station
CLOSE
Current Station
Personal Weather Station
Location: Tilton, IL
Elevation: 626 ft
Nearby Weather Stations

Elev 626 ft 40.11 °N, 87.64 °W | Updated 40 minutes ago

Partly Cloudy
Partly Cloudy
70 °F
Feels Like 70 °F
N
3
Wind Variable Wind from NNE
Gusts 13.0 mph

Today
High -- | Low -- °F
--% Chance of Precip.
Yesterday
High -- | Low -- °F
Precip. -- in
5:25 AM 8:23 PM
Full, 99% visible
Pressure 29.90 in
Visibility 7.0 miles
Clouds Scattered Clouds 4000 ft
Scattered Clouds 4600 ft
Dew Point 61 °F
Humidity 73%
Rainfall in
Snow Depth Not available.
UV 0 out of 12
Pollen .60 out of 12
Air Quality Not available.
Flu Activity Not available.
METAR KDNV 030335Z AUTO 02007KT 7SM SCT040 SCT046 19/16 A2990 RMK AO2 T01850164

More Conditions Fewer Conditions

Pressure 29.90 in
Visibility 7.0 miles
Clouds Scattered Clouds 4000 ft
Scattered Clouds 4600 ft
Dew Point 61 °F
Humidity 73%
Rainfall in
Snow Depth Not available.
UV 0 out of 12
Pollen .60 out of 12
Air Quality Not available.
Flu Activity Not available.
METAR KDNV 030335Z AUTO 02007KT 7SM SCT040 SCT046 19/16 A2990 RMK AO2 T01850164

More Conditions Fewer Conditions

10-Day Weather Forecast

×

Almanac

Astronomy

Jul. 02, 2015 Rise Set
Actual Time
Civil Twilight
Nautical Twilight
Astronomical Twilight
Moon
Length of Visible Light
Length of Day
Tomorrow will be .
, % of the Moon is Illuminated

Today's Extremes

State Highs State Lows

Community

WunderPhotos

Upload Photos

1,834,615 photos uploaded!

WunderBlogs® & News

Nearby

Air Quality

  Air Quality AQ Index Pollutant
Not available.

Snow Depth

Station Depth Elevation

Earthquake Activity

City Distance Mag. Time & Date
Minimum magnitude displayed is 2.5.

Coastal Water Temperatures

Place Temperature

Stations

Nearby Weather Stations

Station Location Temp. Windchill Dew Point Humidity Wind Precip. Elev Updated Type